sensor_id;sensor_type;location;lat;lon;timestamp;P1;durP1;ratioP1;P2;durP2;ratioP2
61673;SDS011;47573;43.832;5.974;2023-04-25T00:01:06;466.35;;;339.75;;
61673;SDS011;47573;43.832;5.974;2023-04-25T00:07:46;459.75;;;329.75;;
61673;SDS011;47573;43.832;5.974;2023-04-25T00:14:27;460.07;;;332.93;;
61673;SDS011;47573;43.832;5.974;2023-04-25T00:21:09;457.50;;;333.35;;
61673;SDS011;47573;43.832;5.974;2023-04-25T00:27:50;448.60;;;328.15;;
61673;SDS011;47573;43.832;5.974;2023-04-25T00:34:30;438.60;;;325.27;;
61673;SDS011;47573;43.832;5.974;2023-04-25T00:41:12;435.43;;;318.10;;
61673;SDS011;47573;43.832;5.974;2023-04-25T00:47:53;431.10;;;316.83;;
61673;SDS011;47573;43.832;5.974;2023-04-25T00:54:34;434.63;;;317.55;;
61673;SDS011;47573;43.832;5.974;2023-04-25T01:01:16;429.42;;;310.27;;
61673;SDS011;47573;43.832;5.974;2023-04-25T01:07:57;420.20;;;308.20;;
61673;SDS011;47573;43.832;5.974;2023-04-25T01:14:38;418.48;;;305.55;;
61673;SDS011;47573;43.832;5.974;2023-04-25T01:21:20;415.00;;;301.07;;
61673;SDS011;47573;43.832;5.974;2023-04-25T01:28:01;410.80;;;300.20;;
61673;SDS011;47573;43.832;5.974;2023-04-25T01:34:41;403.83;;;297.07;;
61673;SDS011;47573;43.832;5.974;2023-04-25T01:41:23;400.63;;;289.57;;
61673;SDS011;47573;43.832;5.974;2023-04-25T01:48:04;396.10;;;289.13;;
61673;SDS011;47573;43.832;5.974;2023-04-25T01:54:45;392.65;;;283.77;;
61673;SDS011;47573;43.832;5.974;2023-04-25T02:01:27;379.55;;;277.48;;
61673;SDS011;47573;43.832;5.974;2023-04-25T02:08:08;376.48;;;275.45;;
61673;SDS011;47573;43.832;5.974;2023-04-25T02:14:49;368.90;;;269.42;;
61673;SDS011;47573;43.832;5.974;2023-04-25T02:21:31;369.60;;;268.33;;
61673;SDS011;47573;43.832;5.974;2023-04-25T02:28:12;366.53;;;265.13;;
61673;SDS011;47573;43.832;5.974;2023-04-25T02:34:52;358.23;;;257.23;;
61673;SDS011;47573;43.832;5.974;2023-04-25T02:41:34;347.77;;;248.53;;
61673;SDS011;47573;43.832;5.974;2023-04-25T02:48:15;346.27;;;250.60;;
61673;SDS011;47573;43.832;5.974;2023-04-25T02:54:55;344.02;;;247.55;;
61673;SDS011;47573;43.832;5.974;2023-04-25T03:01:37;332.63;;;240.37;;
61673;SDS011;47573;43.832;5.974;2023-04-25T03:08:18;321.67;;;233.30;;
61673;SDS011;47573;43.832;5.974;2023-04-25T03:14:58;322.58;;;233.32;;
61673;SDS011;47573;43.832;5.974;2023-04-25T03:21:40;325.17;;;230.57;;
61673;SDS011;47573;43.832;5.974;2023-04-25T03:28:21;322.03;;;227.80;;
61673;SDS011;47573;43.832;5.974;2023-04-25T03:35:02;304.08;;;217.07;;
61673;SDS011;47573;43.832;5.974;2023-04-25T03:41:44;301.13;;;215.82;;
61673;SDS011;47573;43.832;5.974;2023-04-25T03:48:25;295.83;;;208.75;;
61673;SDS011;47573;43.832;5.974;2023-04-25T03:55:06;296.05;;;209.38;;
61673;SDS011;47573;43.832;5.974;2023-04-25T04:01:48;289.77;;;203.13;;
61673;SDS011;47573;43.832;5.974;2023-04-25T04:08:29;277.98;;;197.55;;
61673;SDS011;47573;43.832;5.974;2023-04-25T04:15:10;277.55;;;193.73;;
61673;SDS011;47573;43.832;5.974;2023-04-25T04:21:52;281.20;;;193.68;;
61673;SDS011;47573;43.832;5.974;2023-04-25T04:28:32;270.63;;;184.90;;
61673;SDS011;47573;43.832;5.974;2023-04-25T04:35:13;252.73;;;178.13;;
61673;SDS011;47573;43.832;5.974;2023-04-25T04:41:55;262.80;;;179.00;;
61673;SDS011;47573;43.832;5.974;2023-04-25T04:48:35;251.00;;;170.75;;
61673;SDS011;47573;43.832;5.974;2023-04-25T04:55:16;242.17;;;162.87;;
61673;SDS011;47573;43.832;5.974;2023-04-25T05:01:57;247.77;;;164.03;;
61673;SDS011;47573;43.832;5.974;2023-04-25T05:08:38;230.45;;;153.48;;
61673;SDS011;47573;43.832;5.974;2023-04-25T05:15:18;221.80;;;146.50;;
61673;SDS011;47573;43.832;5.974;2023-04-25T05:22:00;217.03;;;143.20;;
61673;SDS011;47573;43.832;5.974;2023-04-25T05:28:41;218.37;;;145.43;;
61673;SDS011;47573;43.832;5.974;2023-04-25T05:35:21;212.52;;;140.95;;
61673;SDS011;47573;43.832;5.974;2023-04-25T05:42:04;210.48;;;141.13;;
61673;SDS011;47573;43.832;5.974;2023-04-25T05:48:44;205.63;;;137.43;;
61673;SDS011;47573;43.832;5.974;2023-04-25T05:55:25;210.10;;;138.32;;
61673;SDS011;47573;43.832;5.974;2023-04-25T06:02:07;205.47;;;134.50;;
61673;SDS011;47573;43.832;5.974;2023-04-25T06:08:47;214.38;;;141.02;;
61673;SDS011;47573;43.832;5.974;2023-04-25T06:15:27;121.23;;;82.57;;
61673;SDS011;47573;43.832;5.974;2023-04-25T06:22:09;105.50;;;64.50;;
61673;SDS011;47573;43.832;5.974;2023-04-25T06:28:50;83.20;;;46.77;;
61673;SDS011;47573;43.832;5.974;2023-04-25T06:35:30;49.20;;;33.47;;
61673;SDS011;47573;43.832;5.974;2023-04-25T06:42:12;211.57;;;62.83;;
61673;SDS011;47573;43.832;5.974;2023-04-25T06:48:53;55.55;;;22.75;;
61673;SDS011;47573;43.832;5.974;2023-04-25T06:55:33;219.23;;;59.33;;
61673;SDS011;47573;43.832;5.974;2023-04-25T07:02:15;41.13;;;16.87;;
61673;SDS011;47573;43.832;5.974;2023-04-25T07:08:56;118.22;;;36.53;;
61673;SDS011;47573;43.832;5.974;2023-04-25T07:15:36;347.63;;;83.27;;
61673;SDS011;47573;43.832;5.974;2023-04-25T07:22:18;59.55;;;17.70;;
61673;SDS011;47573;43.832;5.974;2023-04-25T07:28:58;24.95;;;10.43;;
61673;SDS011;47573;43.832;5.974;2023-04-25T07:35:39;22.13;;;11.53;;
61673;SDS011;47573;43.832;5.974;2023-04-25T07:42:21;12.87;;;7.80;;
61673;SDS011;47573;43.832;5.974;2023-04-25T07:49:01;44.22;;;13.88;;
61673;SDS011;47573;43.832;5.974;2023-04-25T07:55:42;30.37;;;9.07;;
61673;SDS011;47573;43.832;5.974;2023-04-25T08:02:23;15.80;;;6.70;;
61673;SDS011;47573;43.832;5.974;2023-04-25T08:09:04;21.77;;;7.50;;
61673;SDS011;47573;43.832;5.974;2023-04-25T08:15:44;6.40;;;4.72;;
61673;SDS011;47573;43.832;5.974;2023-04-25T08:22:28;8.32;;;4.30;;
61673;SDS011;47573;43.832;5.974;2023-04-25T08:29:10;14.85;;;6.65;;
61673;SDS011;47573;43.832;5.974;2023-04-25T08:35:50;42.57;;;12.43;;
61673;SDS011;47573;43.832;5.974;2023-04-25T08:42:32;13.73;;;6.45;;
61673;SDS011;47573;43.832;5.974;2023-04-25T08:49:13;9.50;;;6.37;;
61673;SDS011;47573;43.832;5.974;2023-04-25T08:55:54;9.93;;;6.03;;
61673;SDS011;47573;43.832;5.974;2023-04-25T09:02:37;10.57;;;6.10;;
61673;SDS011;47573;43.832;5.974;2023-04-25T09:09:18;9.60;;;5.97;;
61673;SDS011;47573;43.832;5.974;2023-04-25T09:15:59;9.83;;;6.13;;
61673;SDS011;47573;43.832;5.974;2023-04-25T09:22:41;9.57;;;5.87;;
61673;SDS011;47573;43.832;5.974;2023-04-25T09:29:24;9.30;;;6.22;;
61673;SDS011;47573;43.832;5.974;2023-04-25T09:36:09;8.43;;;6.10;;
61673;SDS011;47573;43.832;5.974;2023-04-25T09:42:51;7.88;;;6.20;;
61673;SDS011;47573;43.832;5.974;2023-04-25T09:49:32;8.82;;;5.93;;
61673;SDS011;47573;43.832;5.974;2023-04-25T09:56:12;11.87;;;6.63;;
61673;SDS011;47573;43.832;5.974;2023-04-25T10:02:54;7.15;;;5.65;;
61673;SDS011;47573;43.832;5.974;2023-04-25T10:09:36;9.02;;;5.65;;
61673;SDS011;47573;43.832;5.974;2023-04-25T10:16:18;8.20;;;5.67;;
61673;SDS011;47573;43.832;5.974;2023-04-25T10:23:06;11.38;;;6.72;;
61673;SDS011;47573;43.832;5.974;2023-04-25T10:29:59;8.32;;;5.50;;
61673;SDS011;47573;43.832;5.974;2023-04-25T10:36:41;33.65;;;12.43;;
61673;SDS011;47573;43.832;5.974;2023-04-25T10:43:35;8.37;;;6.03;;
61673;SDS011;47573;43.832;5.974;2023-04-25T10:50:17;176.05;;;54.42;;
61673;SDS011;47573;43.832;5.974;2023-04-25T10:56:58;14.17;;;7.10;;
61673;SDS011;47573;43.832;5.974;2023-04-25T11:03:41;174.05;;;51.13;;
61673;SDS011;47573;43.832;5.974;2023-04-25T11:10:24;17.73;;;7.28;;
61673;SDS011;47573;43.832;5.974;2023-04-25T11:17:05;14.43;;;7.63;;
61673;SDS011;47573;43.832;5.974;2023-04-25T11:23:47;7.37;;;5.70;;
61673;SDS011;47573;43.832;5.974;2023-04-25T11:30:28;6.90;;;5.40;;
61673;SDS011;47573;43.832;5.974;2023-04-25T11:37:08;6.03;;;5.05;;
61673;SDS011;47573;43.832;5.974;2023-04-25T11:43:50;7.15;;;5.22;;
61673;SDS011;47573;43.832;5.974;2023-04-25T11:50:31;7.13;;;5.72;;
61673;SDS011;47573;43.832;5.974;2023-04-25T11:57:11;7.13;;;5.17;;
61673;SDS011;47573;43.832;5.974;2023-04-25T12:03:53;6.47;;;4.90;;
61673;SDS011;47573;43.832;5.974;2023-04-25T12:10:36;5.50;;;4.70;;
61673;SDS011;47573;43.832;5.974;2023-04-25T12:17:17;5.45;;;4.65;;
61673;SDS011;47573;43.832;5.974;2023-04-25T12:24:09;6.03;;;4.70;;
61673;SDS011;47573;43.832;5.974;2023-04-25T12:37:34;6.72;;;4.80;;
61673;SDS011;47573;43.832;5.974;2023-04-25T12:44:16;7.97;;;4.70;;
61673;SDS011;47573;43.832;5.974;2023-04-25T12:50:56;5.22;;;4.72;;
61673;SDS011;47573;43.832;5.974;2023-04-25T12:57:37;6.43;;;4.80;;
61673;SDS011;47573;43.832;5.974;2023-04-25T13:04:19;5.60;;;4.50;;
61673;SDS011;47573;43.832;5.974;2023-04-25T13:10:59;9.10;;;5.37;;
61673;SDS011;47573;43.832;5.974;2023-04-25T13:17:40;18.13;;;8.37;;
61673;SDS011;47573;43.832;5.974;2023-04-25T13:24:22;6.70;;;5.10;;
61673;SDS011;47573;43.832;5.974;2023-04-25T13:31:02;7.00;;;5.40;;
61673;SDS011;47573;43.832;5.974;2023-04-25T13:37:43;44.67;;;28.50;;
61673;SDS011;47573;43.832;5.974;2023-04-25T13:44:24;42.07;;;27.93;;
61673;SDS011;47573;43.832;5.974;2023-04-25T13:51:05;42.13;;;28.02;;
61673;SDS011;47573;43.832;5.974;2023-04-25T13:57:45;41.53;;;28.07;;
61673;SDS011;47573;43.832;5.974;2023-04-25T14:04:27;43.60;;;27.35;;
61673;SDS011;47573;43.832;5.974;2023-04-25T14:11:08;37.33;;;25.53;;
61673;SDS011;47573;43.832;5.974;2023-04-25T14:17:48;40.30;;;25.67;;
61673;SDS011;47573;43.832;5.974;2023-04-25T14:24:30;40.33;;;26.10;;
61673;SDS011;47573;43.832;5.974;2023-04-25T14:31:11;39.20;;;25.80;;
61673;SDS011;47573;43.832;5.974;2023-04-25T14:37:52;39.00;;;27.15;;
61673;SDS011;47573;43.832;5.974;2023-04-25T14:44:34;47.72;;;33.05;;
61673;SDS011;47573;43.832;5.974;2023-04-25T14:51:14;44.65;;;30.88;;
61673;SDS011;47573;43.832;5.974;2023-04-25T14:57:55;43.97;;;31.10;;
61673;SDS011;47573;43.832;5.974;2023-04-25T15:04:37;44.42;;;30.02;;
61673;SDS011;47573;43.832;5.974;2023-04-25T15:11:18;42.43;;;28.00;;
61673;SDS011;47573;43.832;5.974;2023-04-25T15:17:58;1983.97;;;774.40;;
61673;SDS011;47573;43.832;5.974;2023-04-25T15:24:40;70.47;;;37.13;;
61673;SDS011;47573;43.832;5.974;2023-04-25T15:31:21;73.60;;;43.43;;
61673;SDS011;47573;43.832;5.974;2023-04-25T15:38:02;81.43;;;56.33;;
61673;SDS011;47573;43.832;5.974;2023-04-25T15:44:44;83.43;;;57.73;;
61673;SDS011;47573;43.832;5.974;2023-04-25T15:51:24;93.20;;;63.92;;
61673;SDS011;47573;43.832;5.974;2023-04-25T15:58:05;118.40;;;81.43;;
61673;SDS011;47573;43.832;5.974;2023-04-25T16:04:46;150.05;;;101.72;;
61673;SDS011;47573;43.832;5.974;2023-04-25T16:11:27;161.50;;;108.25;;
61673;SDS011;47573;43.832;5.974;2023-04-25T16:18:08;215.07;;;146.73;;
61673;SDS011;47573;43.832;5.974;2023-04-25T16:24:50;161.63;;;110.05;;
61673;SDS011;47573;43.832;5.974;2023-04-25T16:31:30;93.87;;;61.93;;
61673;SDS011;47573;43.832;5.974;2023-04-25T16:38:11;117.00;;;75.32;;
61673;SDS011;47573;43.832;5.974;2023-04-25T16:44:52;153.33;;;100.93;;
61673;SDS011;47573;43.832;5.974;2023-04-25T16:51:33;145.95;;;100.20;;
61673;SDS011;47573;43.832;5.974;2023-04-25T16:58:13;126.85;;;83.07;;
61673;SDS011;47573;43.832;5.974;2023-04-25T17:04:56;83.25;;;54.33;;
61673;SDS011;47573;43.832;5.974;2023-04-25T17:11:37;62.72;;;37.67;;
61673;SDS011;47573;43.832;5.974;2023-04-25T17:18:17;59.65;;;34.22;;
61673;SDS011;47573;43.832;5.974;2023-04-25T17:24:59;64.87;;;32.73;;
61673;SDS011;47573;43.832;5.974;2023-04-25T17:31:40;46.47;;;25.73;;
61673;SDS011;47573;43.832;5.974;2023-04-25T17:38:21;98.55;;;54.22;;
61673;SDS011;47573;43.832;5.974;2023-04-25T17:45:03;184.73;;;117.37;;
61673;SDS011;47573;43.832;5.974;2023-04-25T17:58:24;64.20;;;35.47;;
61673;SDS011;47573;43.832;5.974;2023-04-25T18:05:07;51.57;;;26.53;;
61673;SDS011;47573;43.832;5.974;2023-04-25T18:11:48;49.38;;;25.25;;
61673;SDS011;47573;43.832;5.974;2023-04-25T18:18:30;93.57;;;49.23;;
61673;SDS011;47573;43.832;5.974;2023-04-25T18:25:11;67.70;;;37.20;;
61673;SDS011;47573;43.832;5.974;2023-04-25T18:31:52;50.50;;;26.38;;
61673;SDS011;47573;43.832;5.974;2023-04-25T18:38:33;52.60;;;26.98;;
61673;SDS011;47573;43.832;5.974;2023-04-25T18:45:14;46.50;;;21.47;;
61673;SDS011;47573;43.832;5.974;2023-04-25T18:51:56;49.05;;;21.67;;
61673;SDS011;47573;43.832;5.974;2023-04-25T18:58:36;103.57;;;53.53;;
61673;SDS011;47573;43.832;5.974;2023-04-25T19:05:18;101.63;;;47.63;;
61673;SDS011;47573;43.832;5.974;2023-04-25T19:11:59;279.42;;;123.10;;
61673;SDS011;47573;43.832;5.974;2023-04-25T19:18:39;431.48;;;198.50;;
61673;SDS011;47573;43.832;5.974;2023-04-25T19:25:21;473.67;;;243.87;;
61673;SDS011;47573;43.832;5.974;2023-04-25T19:32:02;469.98;;;245.43;;
61673;SDS011;47573;43.832;5.974;2023-04-25T19:38:42;483.25;;;242.82;;
61673;SDS011;47573;43.832;5.974;2023-04-25T19:45:24;536.80;;;286.27;;
61673;SDS011;47573;43.832;5.974;2023-04-25T19:52:05;493.63;;;263.33;;
61673;SDS011;47573;43.832;5.974;2023-04-25T19:58:45;519.90;;;294.13;;
61673;SDS011;47573;43.832;5.974;2023-04-25T20:05:27;695.05;;;397.38;;
61673;SDS011;47573;43.832;5.974;2023-04-25T20:12:08;508.52;;;295.30;;
61673;SDS011;47573;43.832;5.974;2023-04-25T20:18:48;521.30;;;304.60;;
61673;SDS011;47573;43.832;5.974;2023-04-25T20:25:30;514.20;;;297.30;;
61673;SDS011;47573;43.832;5.974;2023-04-25T20:32:11;525.95;;;316.98;;
61673;SDS011;47573;43.832;5.974;2023-04-25T20:38:51;532.00;;;321.98;;
61673;SDS011;47573;43.832;5.974;2023-04-25T20:45:33;508.60;;;304.30;;
61673;SDS011;47573;43.832;5.974;2023-04-25T20:52:14;528.65;;;312.88;;
61673;SDS011;47573;43.832;5.974;2023-04-25T20:58:55;514.78;;;318.30;;
61673;SDS011;47573;43.832;5.974;2023-04-25T21:05:36;516.23;;;318.13;;
61673;SDS011;47573;43.832;5.974;2023-04-25T21:12:17;519.35;;;317.65;;
61673;SDS011;47573;43.832;5.974;2023-04-25T21:18:58;498.05;;;299.48;;
61673;SDS011;47573;43.832;5.974;2023-04-25T21:25:39;500.25;;;293.25;;
61673;SDS011;47573;43.832;5.974;2023-04-25T21:32:20;483.08;;;283.73;;
61673;SDS011;47573;43.832;5.974;2023-04-25T21:39:01;474.35;;;281.13;;
61673;SDS011;47573;43.832;5.974;2023-04-25T21:45:42;471.43;;;280.93;;
61673;SDS011;47573;43.832;5.974;2023-04-25T21:52:23;486.50;;;292.27;;
61673;SDS011;47573;43.832;5.974;2023-04-25T21:59:03;517.80;;;319.77;;
61673;SDS011;47573;43.832;5.974;2023-04-25T22:05:45;516.63;;;329.63;;
61673;SDS011;47573;43.832;5.974;2023-04-25T22:12:26;504.13;;;314.05;;
61673;SDS011;47573;43.832;5.974;2023-04-25T22:19:06;510.42;;;317.77;;
61673;SDS011;47573;43.832;5.974;2023-04-25T22:25:48;497.53;;;312.03;;
61673;SDS011;47573;43.832;5.974;2023-04-25T22:32:28;512.30;;;330.23;;
61673;SDS011;47573;43.832;5.974;2023-04-25T22:39:09;517.53;;;333.67;;
61673;SDS011;47573;43.832;5.974;2023-04-25T22:45:51;500.45;;;323.17;;
61673;SDS011;47573;43.832;5.974;2023-04-25T22:52:31;518.40;;;339.27;;
61673;SDS011;47573;43.832;5.974;2023-04-25T22:59:12;551.88;;;367.10;;
61673;SDS011;47573;43.832;5.974;2023-04-25T23:05:54;549.97;;;367.03;;
61673;SDS011;47573;43.832;5.974;2023-04-25T23:12:34;552.17;;;369.85;;
61673;SDS011;47573;43.832;5.974;2023-04-25T23:19:15;535.80;;;356.85;;
61673;SDS011;47573;43.832;5.974;2023-04-25T23:25:57;523.37;;;349.83;;
61673;SDS011;47573;43.832;5.974;2023-04-25T23:32:37;533.63;;;358.77;;
61673;SDS011;47573;43.832;5.974;2023-04-25T23:39:18;551.90;;;375.30;;
61673;SDS011;47573;43.832;5.974;2023-04-25T23:46:00;535.53;;;362.90;;
61673;SDS011;47573;43.832;5.974;2023-04-25T23:52:40;553.97;;;382.33;;
61673;SDS011;47573;43.832;5.974;2023-04-25T23:59:21;570.75;;;399.38;;
